createdAt,value
2022-11-07T00:02:06.384Z,0.68
2022-11-07T00:07:09.911Z,0.70
2022-11-07T00:12:14.484Z,0.50
2022-11-07T00:17:18.378Z,0.80
2022-11-07T00:22:21.629Z,0.65
2022-11-07T00:27:26.369Z,0.60
2022-11-07T00:32:29.629Z,0.57
2022-11-07T00:37:32.900Z,0.70
2022-11-07T00:42:40.617Z,0.70
2022-11-07T00:47:43.809Z,0.60
2022-11-07T00:52:47.012Z,0.73
2022-11-07T00:57:51.661Z,0.60
2022-11-07T01:03:09.753Z,0.50
2022-11-07T01:08:12.926Z,0.50
2022-11-07T01:13:17.663Z,0.65
2022-11-07T01:18:21.891Z,0.60
2022-11-07T01:23:25.286Z,0.50
2022-11-07T01:28:29.920Z,0.80
2022-11-07T01:33:33.921Z,0.47
2022-11-07T01:38:37.178Z,0.57
2022-11-07T01:43:48.070Z,0.65
2022-11-07T01:48:57.169Z,0.65
2022-11-07T01:54:01.546Z,0.70
2022-11-07T01:59:07.303Z,0.75
2022-11-07T02:04:11.651Z,1.00
2022-11-07T02:09:15.841Z,1.05
2022-11-07T02:14:20.803Z,0.88
2022-11-07T02:19:31.951Z,0.80
2022-11-07T02:24:39.426Z,0.70
2022-11-07T02:29:46.321Z,0.75
2022-11-07T02:34:57.444Z,0.90
2022-11-07T02:40:05.755Z,0.77
2022-11-07T02:45:09.839Z,0.80
2022-11-07T02:50:15.778Z,0.80
2022-11-07T02:55:20.838Z,0.70
2022-11-07T03:00:24.519Z,0.60
2022-11-07T03:05:27.814Z,0.77
2022-11-07T03:15:59.647Z,0.70
2022-11-07T03:21:02.936Z,0.70
2022-11-07T03:26:08.471Z,0.63
2022-11-07T03:31:11.801Z,0.68
2022-11-07T03:36:15.261Z,0.80
2022-11-07T03:41:19.992Z,0.75
2022-11-07T03:46:23.285Z,0.75
2022-11-07T03:51:26.454Z,0.73
2022-11-07T03:56:31.375Z,0.60
2022-11-07T04:01:34.675Z,0.80
2022-11-07T04:06:38.050Z,0.57
2022-11-07T04:12:00.183Z,0.55
2022-11-07T04:17:21.618Z,0.55
2022-11-07T04:22:26.221Z,0.80
2022-11-07T04:27:47.046Z,0.68
2022-11-07T04:32:52.273Z,0.80
2022-11-07T04:37:55.585Z,0.85
2022-11-07T04:43:00.151Z,0.75
2022-11-07T04:48:03.398Z,0.45
2022-11-07T04:53:06.664Z,0.50
2022-11-07T04:58:11.798Z,0.75
2022-11-07T05:03:15.399Z,0.50
2022-11-07T05:08:18.845Z,0.63
2022-11-07T05:13:23.458Z,0.50
2022-11-07T05:18:26.681Z,0.50
2022-11-07T05:23:29.866Z,0.50
2022-11-07T05:28:39.100Z,0.77
2022-11-07T05:33:43.329Z,0.70
2022-11-07T05:38:48.918Z,0.57
2022-11-07T05:43:53.560Z,0.95
2022-11-07T05:49:00.966Z,0.70
2022-11-07T05:54:04.598Z,0.95
2022-11-07T05:59:10.313Z,0.40
2022-11-07T06:04:13.492Z,0.70
2022-11-07T06:09:16.857Z,0.80
2022-11-07T06:14:21.480Z,0.85
2022-11-07T06:19:24.708Z,0.70
2022-11-07T06:24:28.055Z,0.60
2022-11-07T06:29:36.077Z,0.57
2022-11-07T06:34:39.510Z,0.70
2022-11-07T06:39:44.278Z,0.75
2022-11-07T06:44:49.169Z,1.00
2022-11-07T06:49:52.849Z,0.82
2022-11-07T06:54:56.157Z,0.70
2022-11-07T07:00:00.705Z,1.00
2022-11-07T07:05:03.900Z,0.60
2022-11-07T07:10:08.597Z,0.60
2022-11-07T07:15:13.493Z,0.70
2022-11-07T07:20:16.841Z,0.75
2022-11-07T07:25:20.040Z,0.80
2022-11-07T07:30:24.691Z,0.90
2022-11-07T07:35:28.131Z,1.08
2022-11-07T07:40:31.582Z,0.80
2022-11-07T07:45:36.236Z,0.65
2022-11-07T07:50:39.569Z,1.05
2022-11-07T07:55:42.954Z,0.80
2022-11-07T08:00:47.688Z,0.57
2022-11-07T08:05:55.211Z,1.20
2022-11-07T08:11:02.478Z,0.93
2022-11-07T08:16:09.503Z,1.27
2022-11-07T08:21:12.939Z,0.80
2022-11-07T08:26:17.325Z,0.90
2022-11-07T08:31:22.388Z,0.73
2022-11-07T08:36:25.651Z,0.98
2022-11-07T08:41:28.926Z,0.68
2022-11-07T08:46:33.587Z,0.77
2022-11-07T08:51:37.129Z,1.25
2022-11-07T08:56:40.492Z,1.02
2022-11-07T09:02:15.032Z,1.15
2022-11-07T09:07:09.734Z,1.10
2022-11-07T09:12:13.058Z,0.60
2022-11-07T09:17:18.435Z,0.80
2022-11-07T09:22:21.890Z,0.90
2022-11-07T09:27:25.455Z,0.70
2022-11-07T09:32:44.586Z,0.85
2022-11-07T09:37:50.954Z,0.88
2022-11-07T09:43:07.115Z,0.68
2022-11-07T09:48:19.517Z,0.90
2022-11-07T09:53:29.557Z,0.60
2022-11-07T09:58:35.778Z,0.90
2022-11-07T10:03:52.850Z,1.05
2022-11-07T10:09:12.560Z,0.45
2022-11-07T10:14:23.363Z,0.85
2022-11-07T10:19:41.687Z,0.60
2022-11-07T10:24:57.483Z,1.08
2022-11-07T10:30:02.636Z,1.58
2022-11-07T10:35:20.752Z,0.80
2022-11-07T10:40:26.139Z,0.68
2022-11-07T10:45:30.775Z,0.60
2022-11-07T10:50:35.587Z,0.88
2022-11-07T10:55:45.705Z,0.60
2022-11-07T11:01:00.641Z,0.75
2022-11-07T11:06:14.061Z,0.63
2022-11-07T11:11:24.757Z,0.40
2022-11-07T11:16:31.429Z,0.90
2022-11-07T11:21:43.621Z,0.82
2022-11-07T11:26:49.623Z,1.33
2022-11-07T11:31:56.603Z,0.57
2022-11-07T11:37:05.537Z,0.32
2022-11-07T11:42:20.848Z,0.30
2022-11-07T11:47:34.155Z,0.50
2022-11-07T11:52:39.509Z,0.73
2022-11-07T11:57:51.515Z,0.57
2022-11-07T12:03:23.427Z,0.50
2022-11-07T12:08:49.159Z,0.98
2022-11-07T12:14:02.278Z,0.40
2022-11-07T12:19:17.989Z,0.57
2022-11-07T12:24:33.889Z,0.70
2022-11-07T12:29:53.841Z,0.60
2022-11-07T12:35:09.770Z,0.40
2022-11-07T12:40:29.625Z,0.82
2022-11-07T12:45:46.936Z,0.60
2022-11-07T12:50:59.311Z,0.60
2022-11-07T12:56:08.656Z,0.50
2022-11-07T13:01:15.279Z,0.70
2022-11-07T13:06:27.699Z,0.73
2022-11-07T13:11:39.861Z,0.63
2022-11-07T13:16:52.861Z,0.55
2022-11-07T13:22:01.104Z,0.68
2022-11-07T13:27:16.734Z,0.80
2022-11-07T13:32:20.838Z,0.52
2022-11-07T13:37:27.606Z,0.93
2022-11-07T13:42:35.336Z,0.60
2022-11-07T13:47:42.738Z,0.60
2022-11-07T13:52:55.530Z,0.70
2022-11-07T13:58:04.898Z,0.50
2022-11-07T14:03:08.360Z,0.60
2022-11-07T14:08:20.229Z,0.50
2022-11-07T14:13:28.814Z,0.60
2022-11-07T14:18:38.494Z,0.70
2022-11-07T14:23:46.311Z,0.80
2022-11-07T14:28:51.621Z,0.82
2022-11-07T14:33:57.187Z,0.70
2022-11-07T14:39:04.071Z,0.60
2022-11-07T14:44:14.237Z,0.75
2022-11-07T14:49:24.319Z,0.63
2022-11-07T14:54:34.344Z,0.60
2022-11-07T14:59:39.386Z,0.57
2022-11-07T15:04:44.306Z,0.88
2022-11-07T15:09:47.822Z,0.73
2022-11-07T15:15:03.468Z,0.70
2022-11-07T15:20:08.934Z,0.63
2022-11-07T15:25:26.653Z,0.65
2022-11-07T15:30:34.384Z,0.50
2022-11-07T15:35:45.112Z,0.45
2022-11-07T15:40:48.989Z,0.55
2022-11-07T15:45:55.226Z,0.65
2022-11-07T15:50:58.516Z,0.60
2022-11-07T15:56:05.377Z,0.32
2022-11-07T16:01:11.019Z,0.60
2022-11-07T16:06:18.593Z,0.75
2022-11-07T16:11:21.870Z,0.80
2022-11-07T16:16:31.953Z,0.80
2022-11-07T16:21:35.288Z,0.68
2022-11-07T16:26:40.344Z,1.25
2022-11-07T16:31:45.436Z,1.30
2022-11-07T16:36:49.174Z,1.13
2022-11-07T16:41:52.516Z,1.27
2022-11-07T16:46:57.598Z,0.95
2022-11-07T16:52:01.231Z,1.17
2022-11-07T16:57:04.693Z,1.30
2022-11-07T17:02:20.614Z,0.95
2022-11-07T17:07:25.528Z,0.95
2022-11-07T17:12:29.160Z,0.70
2022-11-07T17:17:33.807Z,1.42
2022-11-07T17:22:37.105Z,1.02
2022-11-07T17:27:41.187Z,0.88
2022-11-07T17:32:46.367Z,0.95
2022-11-07T17:37:49.681Z,0.98
2022-11-07T17:42:53.040Z,1.08
2022-11-07T17:47:57.770Z,1.20
2022-11-07T17:53:01.194Z,1.08
2022-11-07T17:58:04.545Z,1.33
2022-11-07T18:03:09.342Z,1.08
2022-11-07T18:08:25.188Z,1.85
2022-11-07T18:13:35.062Z,2.47
2022-11-07T18:18:40.938Z,1.60
2022-11-07T18:23:45.950Z,1.90
2022-11-07T18:28:54.660Z,1.77
2022-11-07T18:34:01.091Z,2.00
2022-11-07T18:39:04.606Z,2.13
2022-11-07T18:44:08.145Z,2.28
2022-11-07T18:49:15.599Z,2.00
2022-11-07T18:54:19.004Z,1.90
2022-11-07T18:59:22.349Z,1.80
2022-11-07T19:04:27.116Z,1.85
2022-11-07T19:09:32.218Z,2.00
2022-11-07T19:14:35.933Z,2.03
2022-11-07T19:19:40.549Z,2.05
2022-11-07T19:24:43.814Z,2.38
2022-11-07T19:29:47.332Z,2.90
2022-11-07T19:34:52.000Z,2.10
2022-11-07T19:39:55.420Z,1.77
2022-11-07T19:44:58.666Z,1.67
2022-11-07T19:50:03.280Z,1.90
2022-11-07T19:55:07.137Z,2.10
2022-11-07T20:00:12.538Z,2.35
2022-11-07T20:05:24.239Z,2.88
2022-11-07T20:10:27.864Z,4.00
2022-11-07T20:15:31.202Z,4.00
2022-11-07T20:20:36.212Z,4.22
2022-11-07T20:25:42.869Z,4.13
2022-11-07T20:30:46.093Z,3.53
2022-11-07T20:36:00.702Z,3.13
2022-11-07T20:41:05.237Z,3.72
2022-11-07T20:46:10.569Z,3.92
2022-11-07T20:51:17.227Z,3.75
2022-11-07T20:56:21.811Z,2.33
2022-11-07T21:01:27.345Z,1.52
2022-11-07T21:06:32.558Z,2.83
2022-11-07T21:11:36.001Z,2.63
2022-11-07T21:16:39.147Z,2.75
2022-11-07T21:21:44.366Z,2.78
2022-11-07T21:26:47.807Z,2.00
2022-11-07T21:31:51.060Z,2.20
2022-11-07T21:36:55.826Z,2.80
2022-11-07T21:41:59.094Z,2.20
2022-11-07T21:47:02.381Z,2.90
2022-11-07T21:52:07.523Z,2.50
2022-11-07T21:57:10.795Z,2.35
2022-11-07T22:02:14.743Z,2.72
2022-11-07T22:07:19.445Z,3.42
2022-11-07T22:12:22.764Z,3.03
2022-11-07T22:17:27.022Z,3.17
2022-11-07T22:22:31.701Z,3.90
2022-11-07T22:27:34.935Z,3.72
2022-11-07T22:32:38.277Z,3.45
2022-11-07T22:37:42.860Z,4.10
2022-11-07T22:42:46.036Z,3.90
2022-11-07T22:47:49.262Z,3.80
2022-11-07T22:52:53.828Z,3.63
2022-11-07T22:57:57.371Z,3.17
2022-11-07T23:03:00.740Z,3.42
2022-11-07T23:08:05.705Z,2.73
2022-11-07T23:13:09.080Z,2.37
2022-11-07T23:18:12.294Z,2.27
2022-11-07T23:23:16.980Z,2.80
2022-11-07T23:28:20.468Z,3.40
2022-11-07T23:33:23.862Z,3.00
2022-11-07T23:38:28.523Z,2.80
2022-11-07T23:43:32.597Z,3.28
2022-11-07T23:48:53.131Z,2.70
2022-11-07T23:54:15.386Z,2.47
2022-11-07T23:59:36.009Z,2.40
